Time;durP1;ratioP1;P1;durP2;ratioP2;P2;SDS_P1;SDS_P2;PMS_P1;PMS_P2;Temp;Humidity;BMP_temperature;BMP_pressure;BME280_temperature;BME280_humidity;BME280_pressure;Samples;Min_cycle;Max_cycle;Signal;HPM_P1;HPM_P2
2022/04/26 03:36:56;;;;;;;;;;;6.70;99.90;;;;;;5031547;28;20041;-52
2022/04/26 03:39:22;;;;;;;26.25;19.98;;;6.70;99.90;;;;;;5030924;28;19901;-50
2022/04/26 03:41:47;;;;;;;25.48;19.30;;;6.70;99.90;;;;;;5029503;28;20027;-53
2022/04/26 03:44:13;;;;;;;35.17;19.80;;;6.80;99.90;;;;;;5030354;28;20033;-52
2022/04/26 03:46:38;;;;;;;25.70;19.05;;;6.80;99.90;;;;;;5031160;28;20029;-53
2022/04/26 03:49:04;;;;;;;23.58;18.23;;;6.90;99.90;;;;;;5030749;28;20053;-48
2022/04/26 03:51:30;;;;;;;29.70;19.90;;;6.90;99.90;;;;;;5029254;28;20044;-53
2022/04/26 03:53:56;;;;;;;23.02;17.85;;;6.90;99.90;;;;;;5030710;28;20071;-53
2022/04/26 03:56:22;;;;;;;22.50;17.58;;;7.00;99.90;;;;;;5030069;28;20029;-53
2022/04/26 03:58:47;;;;;;;24.55;19.05;;;7.10;99.90;;;;;;5030581;28;20460;-50
2022/04/26 04:01:13;;;;;;;28.20;19.35;;;7.10;99.90;;;;;;5029686;28;20080;-54
2022/04/26 04:03:39;;;;;;;26.70;18.85;;;7.10;99.90;;;;;;5029387;28;20033;-52
2022/04/26 04:06:05;;;;;;;26.25;18.35;;;7.20;99.90;;;;;;5030716;28;20033;-53
2022/04/26 04:08:30;;;;;;;20.77;16.75;;;7.20;99.90;;;;;;5030517;28;20033;-52
2022/04/26 04:10:56;;;;;;;24.25;17.55;;;7.30;99.90;;;;;;5030656;28;20033;-50
2022/04/26 04:13:22;;;;;;;23.60;17.23;;;7.30;99.90;;;;;;5030433;28;20083;-49
2022/04/26 04:15:47;;;;;;;23.80;18.73;;;7.30;99.90;;;;;;5025439;28;141566;-54
2022/04/26 04:20:58;;;;;;;21.65;16.88;;;7.40;99.90;;;;;;5031664;28;20060;-51
2022/04/26 04:23:23;;;;;;;24.75;17.17;;;7.40;99.90;;;;;;5031062;28;20058;-49
2022/04/26 04:29:12;;;;;;;24.15;16.90;;;7.50;99.90;;;;;;5031443;28;20083;-53
2022/04/26 04:31:38;;;;;;;25.63;16.95;;;7.50;99.90;;;;;;5031092;28;20033;-47
2022/04/26 04:34:03;;;;;;;27.63;17.48;;;7.60;99.90;;;;;;5031138;28;20169;-53
2022/04/26 04:36:29;;;;;;;26.65;18.65;;;7.60;99.90;;;;;;5031036;28;20029;-51
2022/04/26 04:38:56;;;;;;;21.17;17.00;;;7.60;99.90;;;;;;5030846;28;20048;-55
2022/04/26 04:41:22;;;;;;;20.67;16.73;;;7.70;99.90;;;;;;5030806;28;20026;-55
2022/04/26 04:43:49;;;;;;;22.38;16.75;;;7.70;99.90;;;;;;5031103;28;20492;-54
2022/04/26 04:46:14;;;;;;;20.17;15.50;;;7.70;99.90;;;;;;5030795;28;20042;-51
2022/04/26 04:48:40;;;;;;;21.05;16.83;;;7.70;99.90;;;;;;5030961;28;20033;-50
2022/04/26 04:51:07;;;;;;;22.65;16.70;;;7.80;99.90;;;;;;5030965;28;20030;-53
2022/04/26 04:53:33;;;;;;;22.63;16.67;;;7.80;99.90;;;;;;5030241;28;20381;-50
2022/04/26 04:55:58;;;;;;;20.05;16.50;;;7.80;99.90;;;;;;5030299;28;20021;-49
2022/04/26 04:58:25;;;;;;;19.00;15.45;;;7.80;99.90;;;;;;5030587;28;20060;-52
2022/04/26 05:00:51;;;;;;;21.45;15.55;;;7.80;99.90;;;;;;5030553;28;20036;-52
2022/04/26 05:03:16;;;;;;;18.95;15.95;;;7.80;99.90;;;;;;5030469;28;20025;-52
2022/04/26 05:05:42;;;;;;;19.27;17.15;;;7.80;99.90;;;;;;5030757;28;20040;-53
2022/04/26 05:08:11;;;;;;;29.63;16.45;;;7.70;99.90;;;;;;5030743;28;20061;-50
2022/04/26 05:10:37;;;;;;;24.20;15.07;;;7.70;99.90;;;;;;5030592;28;20120;-56
2022/04/26 05:13:04;;;;;;;17.95;14.63;;;7.70;99.90;;;;;;5029003;28;20465;-56
2022/04/26 05:15:30;;;;;;;17.48;13.95;;;7.80;99.90;;;;;;5033645;28;20064;-54
2022/04/26 05:17:56;;;;;;;18.23;14.98;;;7.90;99.90;;;;;;5034041;28;20063;-55
2022/04/26 05:20:22;;;;;;;19.70;15.10;;;7.90;99.90;;;;;;5034241;28;20022;-53
2022/04/26 05:25:37;;;;;;;19.05;14.07;;;8.30;99.90;;;;;;5034311;28;20087;-52
2022/04/26 05:28:03;;;;;;;18.27;14.55;;;8.40;99.90;;;;;;5034523;28;20025;-56
2022/04/26 05:30:29;;;;;;;18.70;14.35;;;8.60;99.90;;;;;;5032950;28;20025;-52
2022/04/26 05:32:55;;;;;;;18.98;12.85;;;8.70;99.90;;;;;;5033887;28;20395;-54
2022/04/26 05:35:22;;;;;;;19.08;14.23;;;8.70;99.90;;;;;;5033920;28;20064;-51
2022/04/26 05:37:48;;;;;;;19.33;14.95;;;8.70;99.90;;;;;;5033952;28;20045;-56
2022/04/26 05:40:14;;;;;;;19.02;13.52;;;8.70;99.90;;;;;;5033878;28;20028;-53
2022/04/26 05:42:40;;;;;;;18.30;15.30;;;8.70;99.90;;;;;;5033967;28;20018;-51
2022/04/26 05:45:06;;;;;;;15.48;13.05;;;8.50;99.90;;;;;;5033540;28;20095;-53
2022/04/26 05:47:32;;;;;;;17.23;13.50;;;8.50;99.90;;;;;;5033661;28;20060;-54
2022/04/26 05:49:57;;;;;;;17.48;13.68;;;8.50;99.90;;;;;;5033552;28;20064;-53
2022/04/26 05:52:26;;;;;;;19.70;14.32;;;8.50;99.90;;;;;;5033581;28;20071;-54
2022/04/26 05:54:52;;;;;;;16.77;14.35;;;8.50;99.90;;;;;;5033519;28;20034;-53
2022/04/26 05:57:18;;;;;;;15.05;13.13;;;8.60;99.90;;;;;;5033466;28;20025;-53
2022/04/26 05:59:44;;;;;;;19.48;13.57;;;8.80;99.90;;;;;;5033585;28;20040;-51
2022/04/26 06:02:10;;;;;;;16.00;13.48;;;8.80;99.90;;;;;;5033398;28;20028;-52
2022/04/26 06:04:37;;;;;;;17.27;14.15;;;8.80;99.90;;;;;;5033389;28;20033;-56
2022/04/26 06:07:03;;;;;;;16.83;14.07;;;9.00;99.90;;;;;;5033413;28;20464;-51
2022/04/26 06:09:29;;;;;;;19.38;14.63;;;9.00;99.90;;;;;;5033042;28;20073;-54
2022/04/26 06:11:54;;;;;;;14.85;12.55;;;9.10;99.90;;;;;;5033257;28;20113;-51
2022/04/26 06:14:21;;;;;;;19.75;15.60;;;9.20;99.90;;;;;;5032671;28;20069;-52
2022/04/26 06:16:46;;;;;;;16.80;13.10;;;9.10;99.90;;;;;;5033120;28;20075;-53
2022/04/26 06:19:12;;;;;;;20.90;14.60;;;9.00;99.90;;;;;;5033107;28;20108;-53
2022/04/26 06:21:38;;;;;;;17.20;14.65;;;9.10;99.90;;;;;;5033224;28;20037;-53
2022/04/26 06:24:04;;;;;;;20.92;12.82;;;9.20;99.90;;;;;;5031793;28;20029;-54
2022/04/26 06:26:29;;;;;;;19.25;14.05;;;9.40;99.90;;;;;;5031968;28;20024;-53
2022/04/26 06:28:56;;;;;;;19.83;13.52;;;9.50;99.90;;;;;;5032905;28;20036;-54
2022/04/26 06:31:21;;;;;;;17.45;13.25;;;9.60;99.90;;;;;;5032550;28;20025;-54
2022/04/26 06:33:47;;;;;;;17.33;15.35;;;9.60;99.90;;;;;;5032735;28;20025;-55
2022/04/26 06:36:12;;;;;;;18.83;13.05;;;9.70;99.90;;;;;;5032602;28;20056;-54
2022/04/26 06:38:38;;;;;;;15.90;13.70;;;9.90;99.90;;;;;;5032424;28;20032;-56
2022/04/26 06:41:04;;;;;;;28.88;13.73;;;9.80;99.90;;;;;;5032792;28;20025;-52
2022/04/26 06:43:32;;;;;;;16.52;13.65;;;9.80;99.90;;;;;;5032539;28;20038;-50
2022/04/26 06:45:58;;;;;;;15.73;13.10;;;9.80;99.90;;;;;;5032622;28;20022;-52
2022/04/26 06:48:24;;;;;;;15.40;13.13;;;9.80;99.90;;;;;;5032498;28;20029;-51
2022/04/26 06:50:50;;;;;;;17.48;13.68;;;10.00;99.90;;;;;;5032615;28;20087;-53
2022/04/26 06:53:15;;;;;;;16.48;13.38;;;10.20;99.90;;;;;;5032269;28;20022;-51
2022/04/26 06:55:41;;;;;;;16.98;13.32;;;10.20;99.90;;;;;;5032696;28;20501;-54
2022/04/26 06:58:07;;;;;;;18.17;13.20;;;10.30;99.90;;;;;;5032521;28;20029;-54
2022/04/26 07:00:33;;;;;;;23.88;14.88;;;10.50;99.90;;;;;;5032336;28;20470;-57
2022/04/26 07:02:59;;;;;;;18.88;12.73;;;10.40;99.90;;;;;;5032512;28;20033;-53
2022/04/26 07:05:25;;;;;;;19.85;14.23;;;10.60;99.90;;;;;;5032157;28;20018;-53
2022/04/26 07:07:52;;;;;;;16.70;14.40;;;10.60;99.90;;;;;;5032089;28;20026;-51
2022/04/26 07:10:18;;;;;;;18.90;14.00;;;10.50;99.90;;;;;;5030694;28;20026;-55
2022/04/26 07:12:43;;;;;;;21.35;15.55;;;10.60;99.90;;;;;;5032280;28;20373;-51
2022/04/26 07:15:09;;;;;;;18.98;15.90;;;10.50;99.90;;;;;;5031943;28;20056;-49
2022/04/26 07:17:41;;;;;;;18.08;14.82;;;10.60;99.90;;;;;;5032001;28;20033;-50
2022/04/26 07:20:08;;;;;;;21.13;14.60;;;10.60;99.90;;;;;;5031958;28;20079;-53
2022/04/26 07:22:36;;;;;;;19.77;15.00;;;10.60;99.90;;;;;;5031759;28;20020;-52
2022/04/26 07:25:11;;;;;;;18.27;14.98;;;10.60;99.90;;;;;;5031758;28;20033;-52
2022/04/26 07:27:37;;;;;;;17.35;14.43;;;10.70;99.90;;;;;;5031911;28;20037;-54
2022/04/26 07:30:04;;;;;;;17.85;13.35;;;10.90;99.90;;;;;;5031595;28;20378;-49
2022/04/26 07:35:14;;;;;;;16.58;14.20;;;11.20;99.90;;;;;;5031546;28;20035;-53
2022/04/26 07:37:40;;;;;;;17.15;13.65;;;11.30;99.90;;;;;;5031395;28;20026;-52
2022/04/26 07:40:07;;;;;;;15.63;13.85;;;11.30;99.90;;;;;;5031545;28;20465;-55
2022/04/26 07:42:33;;;;;;;16.50;14.35;;;11.50;99.90;;;;;;5031503;28;20033;-57
2022/04/26 07:44:59;;;;;;;16.45;13.18;;;11.50;99.90;;;;;;5031782;28;20029;-53
2022/04/26 07:47:26;;;;;;;14.55;12.93;;;11.50;99.90;;;;;;5031429;28;20466;-56
2022/04/26 07:49:53;;;;;;;16.67;13.20;;;11.50;99.90;;;;;;5031274;28;20029;-56
2022/04/26 07:52:23;;;;;;;19.60;14.98;;;11.50;99.90;;;;;;5031489;28;20465;-51
2022/04/26 07:54:52;;;;;;;20.90;13.15;;;11.60;99.90;;;;;;5031359;28;20033;-51
2022/04/26 07:57:17;;;;;;;16.52;13.20;;;11.80;99.90;;;;;;5031558;28;20022;-51
2022/04/26 07:59:43;;;;;;;17.50;13.60;;;11.70;99.90;;;;;;5031604;28;20553;-53
2022/04/26 08:02:10;;;;;;;15.40;13.30;;;12.00;99.90;;;;;;5031320;28;20483;-53
2022/04/26 08:04:36;;;;;;;15.93;12.52;;;11.80;99.90;;;;;;5031338;28;20029;-53
2022/04/26 08:07:02;;;;;;;31.23;25.83;;;11.90;99.90;;;;;;5031414;28;20072;-55
2022/04/26 08:09:28;;;;;;;19.85;15.65;;;11.80;99.90;;;;;;5031223;28;20475;-55
2022/04/26 08:11:53;;;;;;;20.02;14.35;;;11.70;99.90;;;;;;5031398;28;20025;-58
2022/04/26 08:14:20;;;;;;;20.50;14.43;;;12.00;99.90;;;;;;5031006;28;20125;-54
2022/04/26 08:16:46;;;;;;;17.30;14.45;;;12.10;99.90;;;;;;5031297;28;20536;-53
2022/04/26 08:19:11;;;;;;;21.40;14.48;;;12.40;99.90;;;;;;5031361;28;20108;-55
2022/04/26 08:21:38;;;;;;;17.15;14.30;;;12.50;99.90;;;;;;5031257;28;20021;-53
2022/04/26 08:29:32;;;;;;;18.00;13.15;;;12.80;99.90;;;;;;5031158;28;20045;-56
2022/04/26 08:31:58;;;;;;;27.33;15.32;;;13.20;99.90;;;;;;5031233;28;20381;-54
2022/04/26 08:34:24;;;;;;;17.75;14.15;;;13.30;99.90;;;;;;5030922;28;20037;-56
2022/04/26 08:36:50;;;;;;;22.27;13.45;;;13.50;99.90;;;;;;5031053;28;20033;-57
2022/04/26 08:39:15;;;;;;;21.25;14.38;;;14.10;99.90;;;;;;5030921;28;20022;-51
2022/04/26 08:41:41;;;;;;;17.23;14.13;;;13.70;99.90;;;;;;5030978;28;20021;-55
2022/04/26 08:44:10;;;;;;;17.30;14.60;;;13.70;99.90;;;;;;5031106;28;20080;-54
2022/04/26 08:52:08;;;;;;;20.35;14.32;;;14.10;99.90;;;;;;5034915;28;20060;-55
2022/04/26 08:54:35;;;;;;;17.15;14.20;;;14.20;99.90;;;;;;5034680;28;20114;-52
2022/04/26 08:57:01;;;;;;;20.15;14.82;;;14.20;99.90;;;;;;5034844;28;20648;-56
2022/04/26 08:59:27;;;;;;;16.20;13.02;;;14.20;99.90;;;;;;5034467;28;20024;-57
2022/04/26 09:02:18;;;;;;;17.67;13.68;;;14.30;99.90;;;;;;5034755;28;20036;-56
2022/04/26 09:04:44;;;;;;;25.58;14.63;;;14.20;99.90;;;;;;5034583;28;20033;-53
2022/04/26 09:07:30;;;;;;;15.77;14.02;;;14.00;99.90;;;;;;5033952;28;20100;-56
2022/04/26 09:10:22;;;;;;;16.50;13.10;;;14.00;99.90;;;;;;5034665;28;20052;-55
2022/04/26 09:13:07;;;;;;;21.63;13.88;;;13.90;99.90;;;;;;5034192;28;20034;-55
2022/04/26 09:15:50;;;;;;;16.30;12.10;;;13.90;99.90;;;;;;5034152;28;20042;-56
2022/04/26 09:18:27;;;;;;;14.75;12.88;;;14.40;99.90;;;;;;5034153;28;20025;-57
2022/04/26 09:21:09;;;;;;;14.10;12.63;;;14.60;99.90;;;;;;5034291;28;20040;-56
2022/04/26 09:23:39;;;;;;;19.40;14.00;;;15.00;99.90;;;;;;5034180;28;20487;-57
2022/04/26 09:26:07;;;;;;;21.98;13.23;;;15.00;99.90;;;;;;5034365;28;20116;-57
2022/04/26 09:28:34;;;;;;;18.10;13.32;;;15.30;99.90;;;;;;5034065;28;20469;-54
2022/04/26 09:31:00;;;;;;;17.98;12.63;;;15.30;99.30;;;;;;5034271;28;20099;-53
2022/04/26 09:33:41;;;;;;;16.40;14.55;;;15.30;99.60;;;;;;5033925;28;20464;-52
2022/04/26 09:36:11;;;;;;;16.02;12.65;;;15.10;99.90;;;;;;5037835;28;20040;-57
2022/04/26 09:38:39;;;;;;;19.85;13.88;;;15.30;99.40;;;;;;5052379;28;20013;-55
2022/04/26 09:41:09;;;;;;;16.65;13.40;;;15.00;99.30;;;;;;5053706;28;20024;-58
2022/04/26 09:43:36;;;;;;;23.17;13.88;;;15.00;99.60;;;;;;5053115;28;20044;-55
2022/04/26 09:46:04;;;;;;;19.67;14.45;;;15.20;99.90;;;;;;5053508;28;20053;-53
2022/04/26 09:48:38;;;;;;;17.95;13.10;;;15.10;99.90;;;;;;5052141;28;20438;-50
2022/04/26 09:51:05;;;;;;;20.10;13.48;;;14.90;99.70;;;;;;5052258;28;20405;-54
2022/04/26 09:53:32;;;;;;;16.02;14.32;;;15.00;99.90;;;;;;5053264;28;20028;-54
2022/04/26 09:55:59;;;;;;;16.75;14.30;;;15.10;99.90;;;;;;5052536;28;20021;-52
2022/04/26 09:58:27;;;;;;;19.02;13.25;;;15.00;99.90;;;;;;5052163;28;20059;-51
2022/04/26 10:00:54;;;;;;;21.23;14.75;;;14.90;99.90;;;;;;5052183;28;20045;-54
2022/04/26 10:03:24;;;;;;;17.50;15.30;;;14.60;99.90;;;;;;5052313;28;20017;-54
2022/04/26 10:06:00;;;;;;;21.08;14.57;;;14.40;99.90;;;;;;5053044;28;20019;-52
2022/04/26 10:08:30;;;;;;;18.27;13.57;;;14.50;99.90;;;;;;5052843;28;20387;-56
2022/04/26 10:10:57;;;;;;;16.25;13.07;;;14.30;99.90;;;;;;5052754;28;20078;-56
2022/04/26 10:13:32;;;;;;;17.48;13.40;;;14.20;99.90;;;;;;5052387;28;20021;-56
2022/04/26 10:16:04;;;;;;;22.83;14.13;;;14.20;99.90;;;;;;5053012;28;20045;-56
2022/04/26 10:18:31;;;;;;;19.67;13.35;;;14.10;99.90;;;;;;5053080;28;20881;-52
2022/04/26 10:20:58;;;;;;;19.73;13.35;;;14.10;99.90;;;;;;5052972;28;20048;-51
2022/04/26 10:23:24;;;;;;;19.63;14.70;;;14.00;99.90;;;;;;5053045;28;20025;-50
2022/04/26 10:26:22;;;;;;;17.30;13.57;;;14.30;99.90;;;;;;5052995;28;20037;-53
2022/04/26 10:29:02;;;;;;;18.70;14.07;;;14.40;99.90;;;;;;5052797;28;20021;-55
2022/04/26 10:31:46;;;;;;;17.60;12.75;;;14.30;99.90;;;;;;5052144;28;20405;-54
2022/04/26 10:34:31;;;;;;;16.00;13.10;;;14.30;99.90;;;;;;5052767;28;20029;-54
2022/04/26 10:37:06;;;;;;;22.52;14.00;;;14.60;99.90;;;;;;5052790;28;20029;-57
2022/04/26 10:39:36;;;;;;;18.55;14.57;;;14.60;99.90;;;;;;5052684;28;20028;-55
2022/04/26 10:42:29;;;;;;;18.08;15.00;;;14.20;99.90;;;;;;5052826;28;20369;-52
2022/04/26 10:45:06;;;;;;;16.77;14.32;;;14.50;99.90;;;;;;5052354;28;20033;-56
2022/04/26 10:47:33;;;;;;;16.13;14.02;;;14.40;99.90;;;;;;5052330;28;20028;-56
2022/04/26 10:49:59;;;;;;;21.23;14.27;;;14.40;99.90;;;;;;5052627;28;20024;-57
2022/04/26 10:52:36;;;;;;;22.98;14.50;;;14.30;99.90;;;;;;5052495;28;20033;-54
2022/04/26 10:55:08;;;;;;;21.90;14.18;;;14.40;99.90;;;;;;5052353;28;20028;-54
2022/04/26 10:57:34;;;;;;;18.50;13.23;;;14.20;99.90;;;;;;5051950;28;20025;-53
2022/04/26 11:00:01;;;;;;;20.35;14.25;;;14.20;99.90;;;;;;5052268;28;20036;-52
2022/04/26 11:02:35;;;;;;;18.70;14.95;;;14.00;99.90;;;;;;5051904;28;20032;-54
2022/04/26 11:05:11;;;;;;;47.90;16.52;;;13.90;99.90;;;;;;5052390;28;20095;-57
2022/04/26 11:07:41;;;;;;;39.58;16.05;;;13.80;99.90;;;;;;5052209;28;20029;-55
2022/04/26 11:10:08;;;;;;;33.20;13.88;;;13.80;99.90;;;;;;5052249;28;20021;-56
2022/04/26 11:12:36;;;;;;;16.23;13.75;;;13.70;99.90;;;;;;5051463;28;20086;-55
2022/04/26 11:15:14;;;;;;;16.30;13.15;;;13.70;99.90;;;;;;5051930;28;20152;-57
2022/04/26 11:17:41;;;;;;;18.45;14.70;;;13.60;99.90;;;;;;5051793;28;20025;-57
2022/04/26 11:20:18;;;;;;;26.10;14.77;;;13.70;99.90;;;;;;5051913;28;20017;-54
2022/04/26 11:22:44;;;;;;;16.60;13.68;;;13.80;99.90;;;;;;5051945;28;20025;-51
2022/04/26 11:28:14;;;;;;;21.77;13.55;;;13.90;99.90;;;;;;5050739;28;20041;-53
2022/04/26 11:30:43;;;;;;;21.45;14.15;;;14.30;99.90;;;;;;5051919;28;20057;-54
2022/04/26 11:33:12;;;;;;;16.55;13.70;;;14.20;99.90;;;;;;5051377;28;20116;-57
2022/04/26 11:35:42;;;;;;;17.60;14.45;;;14.10;99.90;;;;;;5051565;28;20376;-51
2022/04/26 11:38:16;;;;;;;18.20;14.60;;;14.00;99.90;;;;;;5051844;28;20489;-51
2022/04/26 11:40:48;;;;;;;16.00;12.75;;;14.10;99.90;;;;;;5050302;28;20438;-55
2022/04/26 11:43:16;;;;;;;19.05;14.98;;;14.00;99.90;;;;;;5051499;28;20104;-56
2022/04/26 11:45:44;;;;;;;17.30;14.18;;;13.90;99.90;;;;;;5051649;28;20044;-54
2022/04/26 11:48:24;;;;;;;24.83;20.52;;;14.00;99.90;;;;;;5050175;28;20609;-53
2022/04/26 11:50:54;;;;;;;17.67;13.40;;;13.80;99.90;;;;;;5051256;28;20021;-56
2022/04/26 11:53:22;;;;;;;16.45;12.77;;;13.80;99.90;;;;;;5051201;28;20029;-55
2022/04/26 11:55:56;;;;;;;16.25;13.13;;;13.70;99.90;;;;;;5051437;28;20017;-56
2022/04/26 11:58:28;;;;;;;17.63;13.38;;;13.80;99.90;;;;;;5051380;28;20449;-54
2022/04/26 12:01:04;;;;;;;16.42;12.57;;;13.70;99.90;;;;;;5051497;28;20381;-49
2022/04/26 12:03:38;;;;;;;17.38;12.60;;;13.80;99.90;;;;;;5051205;28;20029;-55
2022/04/26 12:06:08;;;;;;;15.30;12.15;;;13.70;99.90;;;;;;5050967;28;20036;-53
2022/04/26 12:08:39;;;;;;;18.80;12.32;;;13.80;99.90;;;;;;5050929;28;20088;-54
2022/04/26 12:11:20;;;;;;;13.82;11.63;;;13.70;99.90;;;;;;5051401;28;20032;-55
2022/04/26 12:13:59;;;;;;;19.13;12.65;;;13.60;99.90;;;;;;5051144;28;20059;-54
2022/04/26 12:16:25;;;;;;;23.85;17.75;;;13.70;99.90;;;;;;5050960;28;20472;-54
2022/04/26 12:18:56;;;;;;;15.32;10.75;;;13.60;99.90;;;;;;5051324;28;20036;-56
2022/04/26 12:21:24;;;;;;;13.05;11.65;;;13.60;99.90;;;;;;5051154;28;20526;-52
2022/04/26 12:24:11;;;;;;;14.73;11.65;;;13.50;99.90;;;;;;5052520;28;20083;-55
2022/04/26 12:26:37;;;;;;;15.18;12.13;;;13.50;99.90;;;;;;5054779;28;20086;-55
2022/04/26 12:29:12;;;;;;;15.98;12.40;;;13.50;99.90;;;;;;5055357;28;20390;-53
2022/04/26 12:31:47;;;;;;;13.65;11.38;;;13.50;99.90;;;;;;5055061;28;20025;-56
2022/04/26 12:34:24;;;;;;;16.83;11.88;;;13.40;99.90;;;;;;5054943;28;20032;-55
2022/04/26 12:37:02;;;;;;;16.30;11.82;;;13.20;99.90;;;;;;5055192;28;20457;-57
2022/04/26 12:39:41;;;;;;;13.70;11.50;;;13.10;99.90;;;;;;5054835;28;20021;-55
2022/04/26 12:42:14;;;;;;;14.43;12.10;;;13.10;99.90;;;;;;5054856;28;20025;-54
2022/04/26 12:44:52;;;;;;;13.30;10.88;;;12.90;99.90;;;;;;5054878;28;20031;-56
2022/04/26 12:52:53;;;;;;;13.82;11.50;;;12.90;99.90;;;;;;5054795;28;20424;-52
2022/04/26 12:55:36;;;;;;;17.83;12.60;;;12.80;99.90;;;;;;5054578;28;20086;-55
2022/04/26 12:58:04;;;;;;;20.52;14.18;;;12.80;99.90;;;;;;5054045;28;20068;-55
2022/04/26 13:00:32;;;;;;;16.95;13.18;;;12.80;99.90;;;;;;5054204;28;20090;-56
2022/04/26 13:03:03;;;;;;;16.30;13.02;;;12.60;99.90;;;;;;5053356;28;20086;-54
2022/04/26 13:05:41;;;;;;;15.80;12.20;;;12.50;99.90;;;;;;5054508;28;20044;-53
2022/04/26 13:08:08;;;;;;;14.63;12.30;;;12.50;99.90;;;;;;5054545;28;20109;-55
2022/04/26 13:10:33;;;;;;;17.10;13.10;;;12.40;99.90;;;;;;5054235;28;20032;-56
2022/04/26 13:12:59;;;;;;;16.70;13.23;;;12.40;99.90;;;;;;5054084;28;20029;-53
2022/04/26 13:15:27;;;;;;;17.17;11.93;;;12.30;99.90;;;;;;5053759;28;20128;-56
2022/04/26 13:17:53;;;;;;;16.58;13.68;;;12.30;99.90;;;;;;5054306;28;20014;-54
2022/04/26 13:20:19;;;;;;;16.33;12.48;;;12.40;99.90;;;;;;5054101;28;20032;-55
2022/04/26 13:22:46;;;;;;;14.23;11.85;;;12.50;99.90;;;;;;5054193;28;20025;-56
2022/04/26 13:25:11;;;;;;;18.02;12.23;;;12.70;99.90;;;;;;5053934;28;20469;-55
2022/04/26 13:27:38;;;;;;;18.60;16.60;;;12.70;99.90;;;;;;5052576;28;20040;-56
2022/04/26 13:30:05;;;;;;;14.35;12.23;;;12.80;99.90;;;;;;5054119;28;20551;-53
2022/04/26 13:32:31;;;;;;;17.95;11.93;;;12.80;99.90;;;;;;5054026;28;20111;-52
2022/04/26 13:34:58;;;;;;;12.52;10.82;;;13.00;99.90;;;;;;5053551;28;20524;-52
2022/04/26 13:37:24;;;;;;;12.73;10.30;;;12.90;99.90;;;;;;5053718;28;20156;-56
2022/04/26 13:39:50;;;;;;;13.15;10.85;;;13.00;99.90;;;;;;5053941;28;20036;-56
2022/04/26 13:42:16;;;;;;;16.17;11.13;;;13.00;99.90;;;;;;5053546;28;20036;-56
2022/04/26 13:44:42;;;;;;;13.75;11.77;;;13.00;99.90;;;;;;5053536;28;20033;-55
2022/04/26 13:47:09;;;;;;;14.20;12.20;;;13.00;99.90;;;;;;5053400;28;20029;-56
2022/04/26 13:49:35;;;;;;;21.73;15.43;;;12.90;99.90;;;;;;5053536;28;20027;-57
2022/04/26 13:52:05;;;;;;;21.02;15.18;;;12.90;99.90;;;;;;5053136;28;20074;-57
2022/04/26 13:54:31;;;;;;;21.13;15.48;;;12.70;99.90;;;;;;5053147;28;20029;-53
2022/04/26 13:56:57;;;;;;;18.13;13.75;;;12.70;99.90;;;;;;5053360;28;20028;-53
2022/04/26 13:59:24;;;;;;;16.13;14.18;;;12.60;99.90;;;;;;5051919;28;20018;-55
2022/04/26 14:01:50;;;;;;;16.27;13.63;;;12.60;99.90;;;;;;5053127;28;20474;-56
2022/04/26 14:04:17;;;;;;;14.43;12.88;;;12.90;99.90;;;;;;5053383;28;20025;-55
2022/04/26 14:06:42;;;;;;;16.40;13.82;;;12.90;99.90;;;;;;5053256;28;20032;-55
2022/04/26 14:09:08;;;;;;;18.60;13.50;;;12.80;99.90;;;;;;5053206;28;20036;-56
2022/04/26 14:11:34;;;;;;;20.20;15.02;;;12.90;99.90;;;;;;5052013;28;20036;-54
2022/04/26 14:22:12;;;;;;;15.15;12.07;;;12.80;99.90;;;;;;5053151;28;19976;-59
2022/04/26 14:24:39;;;;;;;19.70;12.57;;;12.80;99.90;;;;;;5052925;28;20504;-51
2022/04/26 14:27:05;;;;;;;17.80;12.02;;;12.70;99.90;;;;;;5052793;28;20036;-54
2022/04/26 14:29:32;;;;;;;14.57;12.85;;;12.60;99.90;;;;;;5052673;28;20491;-55
2022/04/26 14:31:57;;;;;;;15.43;11.32;;;12.50;99.90;;;;;;5052856;28;20032;-51
2022/04/26 14:34:23;;;;;;;12.80;11.30;;;12.50;99.90;;;;;;5052412;28;20021;-54
2022/04/26 14:36:49;;;;;;;14.18;12.52;;;12.60;99.90;;;;;;5052916;28;20025;-51
2022/04/26 14:39:15;;;;;;;15.85;13.00;;;12.50;99.90;;;;;;5052496;28;20024;-55
2022/04/26 14:41:44;;;;;;;14.57;12.02;;;12.40;99.90;;;;;;5052538;28;20087;-55
2022/04/26 14:44:10;;;;;;;17.52;12.55;;;12.50;99.90;;;;;;5052640;28;20025;-52
2022/04/26 14:46:36;;;;;;;16.58;12.70;;;12.50;99.90;;;;;;5051693;28;20032;-52
2022/04/26 14:49:03;;;;;;;14.30;12.20;;;12.20;99.90;;;;;;5052694;28;20057;-55
2022/04/26 14:51:29;;;;;;;16.90;13.82;;;12.20;99.90;;;;;;5050919;28;20544;-53
2022/04/26 14:53:55;;;;;;;17.35;13.10;;;12.00;99.90;;;;;;5052396;28;20086;-53
2022/04/26 14:56:21;;;;;;;17.90;14.57;;;11.70;99.90;;;;;;5052057;28;20021;-53
2022/04/26 14:58:49;;;;;;;24.88;16.67;;;11.50;99.90;;;;;;5052288;28;20545;-52
2022/04/26 15:01:15;;;;;;;17.75;13.27;;;11.20;99.90;;;;;;5052240;28;20040;-55
2022/04/26 15:03:41;;;;;;;9.27;7.22;;;10.90;99.90;;;;;;5052271;28;20032;-55
2022/04/26 15:06:06;;;;;;;11.23;6.53;;;10.50;99.90;;;;;;5052207;28;20548;-56
2022/04/26 15:11:16;;;;;;;8.07;3.92;;;9.80;99.90;;;;;;5051973;28;20028;-55
2022/04/26 15:16:38;;;;;;;2.47;2.28;;;9.40;99.90;;;;;;5052043;28;20070;-55
2022/04/26 15:19:07;;;;;;;2.05;1.95;;;9.30;99.90;;;;;;5052114;28;20508;-53
2022/04/26 15:21:33;;;;;;;2.92;2.15;;;9.00;99.90;;;;;;5051470;28;20060;-52
2022/04/26 15:24:00;;;;;;;2.40;2.20;;;9.00;99.90;;;;;;5051788;28;20032;-54
2022/04/26 15:26:25;;;;;;;2.05;1.85;;;9.10;99.90;;;;;;5051818;28;20029;-56
2022/04/26 15:28:52;;;;;;;3.08;2.10;;;9.10;99.90;;;;;;5051824;28;20036;-53
2022/04/26 15:31:18;;;;;;;2.28;2.15;;;9.00;99.90;;;;;;5051854;28;20041;-52
2022/04/26 15:33:46;;;;;;;2.72;2.10;;;9.00;99.90;;;;;;5051781;28;20060;-53
2022/04/26 15:36:13;;;;;;;3.25;2.30;;;9.00;99.90;;;;;;5050192;28;20028;-55
2022/04/26 15:38:39;;;;;;;11.90;9.27;;;8.80;99.90;;;;;;5051512;28;20031;-51
2022/04/26 15:41:05;;;;;;;3.20;2.90;;;8.80;99.90;;;;;;5051506;28;20033;-51
2022/04/26 15:43:35;;;;;;;6.25;2.72;;;8.60;99.90;;;;;;5051533;28;20052;-52
2022/04/26 15:46:03;;;;;;;2.50;2.30;;;8.60;99.90;;;;;;5051541;28;20428;-52
2022/04/26 15:48:29;;;;;;;1.95;1.83;;;8.50;99.90;;;;;;5051567;28;20029;-52
2022/04/26 15:50:56;;;;;;;5.43;4.20;;;8.50;99.90;;;;;;5051509;28;20068;-50
2022/04/26 15:53:21;;;;;;;2.10;2.00;;;8.40;99.90;;;;;;5051098;28;20021;-52
2022/04/26 15:55:47;;;;;;;2.10;2.00;;;8.40;99.90;;;;;;5051440;28;20031;-53
2022/04/26 15:58:13;;;;;;;2.35;2.08;;;8.50;99.90;;;;;;5049862;28;20492;-53
2022/04/26 16:00:40;;;;;;;1.85;1.70;;;8.40;99.90;;;;;;5051543;28;20052;-53
2022/04/26 16:03:06;;;;;;;7.82;2.45;;;8.30;99.90;;;;;;5051417;28;20361;-58
2022/04/26 16:05:31;;;;;;;2.40;2.20;;;8.20;99.90;;;;;;5051171;28;20668;-51
2022/04/26 16:07:58;;;;;;;4.60;1.95;;;8.10;99.90;;;;;;5051277;28;20025;-53
2022/04/26 16:21:25;;;;;;;2.58;2.38;;;7.80;99.90;;;;;;5051071;28;20098;-52
2022/04/26 16:23:55;;;;;;;6.38;2.95;;;7.60;99.90;;;;;;5051167;28;20021;-47
2022/04/26 16:26:22;;;;;;;3.63;2.30;;;7.40;99.90;;;;;;5050867;28;20057;-57
2022/04/26 16:28:49;;;;;;;7.07;3.53;;;7.30;99.90;;;;;;5051172;28;20029;-54
2022/04/26 16:31:15;;;;;;;12.10;6.20;;;7.10;99.90;;;;;;5051041;28;20033;-51
2022/04/26 16:33:41;;;;;;;11.55;3.45;;;6.90;99.90;;;;;;5050831;28;20025;-55
2022/04/26 16:36:08;;;;;;;4.15;2.33;;;6.80;99.90;;;;;;5051696;28;20409;-53
2022/04/26 16:38:36;;;;;;;3.80;2.75;;;6.70;99.90;;;;;;5051866;28;20036;-54
2022/04/26 16:41:04;;;;;;;2.83;2.60;;;6.70;99.90;;;;;;5051168;28;20033;-54
2022/04/26 16:43:30;;;;;;;4.32;2.65;;;6.60;99.90;;;;;;5050901;28;20021;-53
2022/04/26 16:45:56;;;;;;;2.88;2.67;;;6.60;99.90;;;;;;5051132;28;20017;-53
2022/04/26 16:48:22;;;;;;;3.22;2.72;;;6.60;99.90;;;;;;5050851;28;20026;-55
2022/04/26 16:50:49;;;;;;;2.70;2.50;;;6.60;99.90;;;;;;5050774;28;20021;-52
2022/04/26 16:53:15;;;;;;;2.40;2.30;;;6.50;99.90;;;;;;5050721;28;20025;-51
2022/04/26 16:55:40;;;;;;;2.60;2.40;;;6.50;99.90;;;;;;5032808;28;20037;-53
2022/04/26 16:58:06;;;;;;;2.28;2.03;;;6.50;99.90;;;;;;5018093;28;20416;-51
2022/04/26 17:00:32;;;;;;;7.88;4.10;;;6.40;99.90;;;;;;5019344;28;20037;-54
2022/04/26 17:02:58;;;;;;;2.90;2.70;;;6.40;99.90;;;;;;5017394;28;20042;-58
2022/04/26 17:05:26;;;;;;;5.28;3.67;;;6.40;99.90;;;;;;5019365;28;20041;-55
2022/04/26 17:07:54;;;;;;;3.08;2.83;;;6.40;99.90;;;;;;5019510;28;20256;-53
2022/04/26 17:10:20;;;;;;;3.03;2.80;;;6.40;99.90;;;;;;5021778;28;20278;-55